createdAt,value
2019-01-30T00:02:22.571Z,100076.14
2019-01-30T00:04:51.975Z,100075.79
2019-01-30T00:07:23.221Z,100066.90
2019-01-30T00:09:52.621Z,100065.28
2019-01-30T00:12:22.036Z,100067.67
2019-01-30T00:14:51.528Z,100070.72
2019-01-30T00:17:23.492Z,100060.56
2019-01-30T00:19:52.930Z,100055.13
2019-01-30T00:22:22.426Z,100054.95
2019-01-30T00:24:51.848Z,100057.29
2019-01-30T00:27:22.367Z,100057.70
2019-01-30T00:30:03.652Z,100051.80
2019-01-30T00:32:26.061Z,100050.36
2019-01-30T00:34:55.508Z,100043.77
2019-01-30T00:37:25.220Z,100043.52
2019-01-30T00:39:54.831Z,100041.75
2019-01-30T00:42:24.272Z,100044.45
2019-01-30T00:44:53.951Z,100036.56
2019-01-30T00:47:24.389Z,100028.69
2019-01-30T00:49:53.892Z,100024.89
2019-01-30T00:52:23.369Z,100027.71
2019-01-30T00:54:52.766Z,100027.71
2019-01-30T00:57:25.354Z,100021.31
2019-01-30T00:59:55.964Z,100023.59
2019-01-30T01:02:27.161Z,100027.08
2019-01-30T01:04:57.142Z,100015.09
2019-01-30T01:07:27.298Z,100018.62
2019-01-30T01:09:57.435Z,100014.06
2019-01-30T01:12:28.709Z,100009.87
2019-01-30T01:14:59.352Z,100010.93
2019-01-30T01:17:32.375Z,100011.44
2019-01-30T01:20:01.813Z,100004.01
2019-01-30T01:22:34.029Z,100011.31
2019-01-30T01:25:03.855Z,100010.95
2019-01-30T01:27:33.346Z,100011.77
2019-01-30T01:30:03.253Z,100008.69
2019-01-30T01:32:33.815Z,100008.88
2019-01-30T01:35:03.219Z,100006.92
2019-01-30T01:37:32.768Z,100004.69
2019-01-30T01:40:02.181Z,100006.35
2019-01-30T01:42:31.732Z,100002.80
2019-01-30T01:45:02.413Z,99999.94
2019-01-30T01:47:31.925Z,99993.27
2019-01-30T01:50:01.411Z,99992.02
2019-01-30T01:52:31.036Z,99991.86
2019-01-30T01:55:01.592Z,99984.94
2019-01-30T01:57:31.044Z,99985.56
2019-01-30T02:00:01.808Z,99977.92
2019-01-30T02:02:32.395Z,99979.68
2019-01-30T02:05:01.812Z,99975.10
2019-01-30T02:07:31.381Z,99973.12
2019-01-30T02:10:00.788Z,99970.56
2019-01-30T02:12:30.210Z,99973.67
2019-01-30T02:14:59.954Z,99978.70
2019-01-30T02:17:30.495Z,99971.97
2019-01-30T02:19:59.912Z,99973.80
2019-01-30T02:22:30.539Z,99971.58
2019-01-30T02:25:01.156Z,99964.95
2019-01-30T02:27:30.625Z,99965.53
2019-01-30T02:30:00.438Z,99974.53
2019-01-30T02:32:30.005Z,99967.36
2019-01-30T02:34:59.465Z,99966.05
2019-01-30T02:37:29.089Z,99961.52
2019-01-30T02:39:58.492Z,99965.41
2019-01-30T02:42:29.479Z,99964.16
2019-01-30T02:44:59.156Z,99963.98
2019-01-30T02:47:28.664Z,99966.20
2019-01-30T02:49:59.657Z,99963.82
2019-01-30T02:52:30.217Z,99960.48
2019-01-30T02:54:59.666Z,99964.27
2019-01-30T02:57:32.113Z,99956.27
2019-01-30T03:00:01.753Z,99962.09
2019-01-30T03:02:32.270Z,99954.55
2019-01-30T03:05:01.673Z,99951.29
2019-01-30T03:07:31.277Z,99958.10
2019-01-30T03:10:00.711Z,99952.09
2019-01-30T03:12:30.208Z,99949.83
2019-01-30T03:15:00.276Z,99955.97
2019-01-30T03:17:29.932Z,99952.90
2019-01-30T03:19:59.636Z,99957.02
2019-01-30T03:22:29.371Z,99960.33
2019-01-30T03:24:58.975Z,99952.68
2019-01-30T03:27:28.682Z,99948.23
2019-01-30T03:29:58.291Z,99953.80
2019-01-30T03:32:27.960Z,99949.02
2019-01-30T03:34:57.750Z,99949.81
2019-01-30T03:37:27.657Z,99943.02
2019-01-30T03:39:57.598Z,99945.48
2019-01-30T03:42:27.620Z,99943.77
2019-01-30T03:44:57.666Z,99937.48
2019-01-30T03:47:27.723Z,99940.00
2019-01-30T03:49:58.692Z,99938.92
2019-01-30T03:52:29.371Z,99938.44
2019-01-30T03:54:59.035Z,99933.15
2019-01-30T03:57:29.009Z,99938.91
2019-01-30T03:59:59.171Z,99939.03
2019-01-30T04:02:28.633Z,99928.77
2019-01-30T04:04:58.222Z,99930.52
2019-01-30T04:07:27.832Z,99925.04
2019-01-30T04:09:59.542Z,99932.11
2019-01-30T04:12:29.539Z,99924.59
2019-01-30T04:14:59.406Z,99933.00
2019-01-30T04:17:29.193Z,99936.02
2019-01-30T04:19:58.728Z,99938.82
2019-01-30T04:22:28.436Z,99939.89
2019-01-30T04:24:57.937Z,99936.53
2019-01-30T04:27:28.624Z,99927.19
2019-01-30T04:29:58.092Z,99929.97
2019-01-30T04:32:27.654Z,99929.13
2019-01-30T04:34:58.218Z,99921.08
2019-01-30T04:37:27.839Z,99917.08
2019-01-30T04:39:59.000Z,99920.70
2019-01-30T04:42:28.438Z,99911.60
2019-01-30T04:44:58.040Z,99911.54
2019-01-30T04:47:27.639Z,99878.70
2019-01-30T04:49:59.165Z,99912.20
2019-01-30T04:52:28.977Z,99908.63
2019-01-30T04:54:58.441Z,99905.88
2019-01-30T04:57:27.925Z,99905.38
2019-01-30T04:59:57.495Z,99905.28
2019-01-30T05:02:27.535Z,99906.48
2019-01-30T05:04:59.384Z,99907.43
2019-01-30T05:07:28.901Z,99901.44
2019-01-30T05:09:59.781Z,99902.52
2019-01-30T05:12:31.079Z,99898.75
2019-01-30T05:15:02.740Z,99902.36
2019-01-30T05:17:33.963Z,99893.69
2019-01-30T05:20:03.410Z,99895.39
2019-01-30T05:22:34.861Z,99893.27
2019-01-30T05:25:04.587Z,99893.78
2019-01-30T05:27:34.022Z,99891.69
2019-01-30T05:30:05.251Z,99894.26
2019-01-30T05:32:36.129Z,99886.39
2019-01-30T05:35:07.964Z,99886.39
2019-01-30T05:37:39.305Z,99878.79
2019-01-30T05:40:11.038Z,99889.91
2019-01-30T05:42:42.044Z,99879.59
2019-01-30T05:45:14.273Z,99878.28
2019-01-30T05:47:43.789Z,99873.86
2019-01-30T05:50:16.168Z,99873.09
2019-01-30T05:52:46.104Z,99875.95
2019-01-30T05:55:15.960Z,99873.20
2019-01-30T05:57:45.423Z,99871.72
2019-01-30T06:00:33.819Z,99871.72
2019-01-30T06:03:04.753Z,99871.30
2019-01-30T06:05:34.145Z,99870.80
2019-01-30T06:08:03.642Z,99867.36
2019-01-30T06:10:33.077Z,99864.16
2019-01-30T06:13:02.556Z,99870.72
2019-01-30T06:15:32.305Z,99869.05
2019-01-30T06:18:02.174Z,99863.86
2019-01-30T06:20:31.728Z,99866.48
2019-01-30T06:23:03.423Z,99863.20
2019-01-30T06:25:33.934Z,99870.27
2019-01-30T06:28:03.340Z,99868.60
2019-01-30T06:30:32.942Z,99875.28
2019-01-30T06:33:03.839Z,99874.78
2019-01-30T06:35:33.262Z,99872.59
2019-01-30T06:38:06.070Z,99868.77
2019-01-30T06:40:35.571Z,99868.20
2019-01-30T06:43:05.067Z,99870.77
2019-01-30T06:45:34.704Z,99867.84
2019-01-30T06:48:05.732Z,99872.13
2019-01-30T06:50:35.206Z,99868.43
2019-01-30T06:53:04.844Z,99872.09
2019-01-30T06:55:34.277Z,99869.55
2019-01-30T06:58:03.669Z,99866.48
2019-01-30T07:00:33.105Z,99868.09
2019-01-30T07:03:02.916Z,99873.91
2019-01-30T07:05:32.323Z,99863.35
2019-01-30T07:08:02.067Z,99864.73
2019-01-30T07:10:31.469Z,99864.39
2019-01-30T07:13:02.655Z,99869.13
2019-01-30T07:15:33.346Z,99864.73
2019-01-30T07:18:02.963Z,99865.92
2019-01-30T07:20:32.721Z,99870.50
2019-01-30T07:23:02.271Z,99876.58
2019-01-30T07:25:31.743Z,99873.72
2019-01-30T07:28:01.176Z,99874.95
2019-01-30T07:30:33.212Z,99880.42
2019-01-30T07:33:02.640Z,99878.83
2019-01-30T07:35:32.072Z,99879.86
2019-01-30T07:38:01.756Z,99880.69
2019-01-30T07:40:32.545Z,99876.37
2019-01-30T07:43:02.001Z,99876.59
2019-01-30T07:45:31.932Z,99877.69
2019-01-30T07:48:01.373Z,99879.60
2019-01-30T07:50:30.812Z,99881.56
2019-01-30T07:53:00.342Z,99886.23
2019-01-30T07:55:29.792Z,99883.77
2019-01-30T07:57:59.325Z,99881.27
2019-01-30T08:00:31.038Z,99885.52
2019-01-30T08:03:00.429Z,99886.01
2019-01-30T08:05:29.946Z,99900.16
2019-01-30T08:07:59.597Z,99898.78
2019-01-30T08:10:29.002Z,99893.75
2019-01-30T08:12:58.596Z,99893.23
2019-01-30T08:15:28.349Z,99890.48
2019-01-30T08:17:57.919Z,99889.30
2019-01-30T08:20:27.857Z,99888.88
2019-01-30T08:23:00.847Z,99884.64
2019-01-30T08:25:30.802Z,99889.45
2019-01-30T08:28:00.497Z,99894.42
2019-01-30T08:30:31.980Z,99881.72
2019-01-30T08:33:05.974Z,99881.20
2019-01-30T08:35:35.306Z,99878.44
2019-01-30T08:38:05.876Z,99891.44
2019-01-30T08:40:35.316Z,99887.11
2019-01-30T08:43:04.770Z,99891.94
2019-01-30T08:45:34.315Z,99899.52
2019-01-30T08:48:03.880Z,99894.92
2019-01-30T08:50:33.417Z,99882.68
2019-01-30T08:53:02.939Z,99886.11
2019-01-30T08:55:32.399Z,99886.30
2019-01-30T08:58:01.847Z,99886.50
2019-01-30T09:00:31.859Z,99876.67
2019-01-30T09:03:01.351Z,99877.45
2019-01-30T09:05:30.794Z,99886.88
2019-01-30T09:08:00.334Z,99883.44
2019-01-30T09:10:30.049Z,99880.08
2019-01-30T09:12:59.757Z,99875.03
2019-01-30T09:15:29.690Z,99875.03
2019-01-30T09:17:59.183Z,99874.30
2019-01-30T09:20:28.652Z,99879.73
2019-01-30T09:22:58.200Z,99878.05
2019-01-30T09:25:29.653Z,99875.99
2019-01-30T09:28:00.085Z,99867.62
2019-01-30T09:30:32.319Z,99877.14
2019-01-30T09:33:03.127Z,99870.46
2019-01-30T09:35:34.067Z,99874.44
2019-01-30T09:38:03.716Z,99869.53
2019-01-30T09:40:33.189Z,99869.73
2019-01-30T09:43:02.563Z,99869.53
2019-01-30T09:45:32.189Z,99861.26
2019-01-30T09:48:03.094Z,99865.05
2019-01-30T09:50:34.284Z,99861.57
2019-01-30T09:53:04.759Z,99865.83
2019-01-30T09:55:34.301Z,99862.61
2019-01-30T09:58:03.813Z,99859.19
2019-01-30T10:00:35.206Z,99859.19
2019-01-30T10:03:05.141Z,99852.46
2019-01-30T10:05:34.837Z,99855.13
2019-01-30T10:08:06.065Z,99856.41
2019-01-30T10:10:37.420Z,99847.46
2019-01-30T10:13:07.453Z,99841.20
2019-01-30T10:15:38.859Z,99838.58
2019-01-30T10:18:09.140Z,99840.42
2019-01-30T10:20:39.330Z,99839.48
2019-01-30T10:23:09.103Z,99835.42
2019-01-30T10:25:38.525Z,99845.28
2019-01-30T10:28:16.173Z,99844.94
2019-01-30T10:30:41.728Z,99837.31
2019-01-30T10:33:11.170Z,99838.48
2019-01-30T10:35:41.139Z,99827.13
2019-01-30T10:38:10.748Z,99833.03
2019-01-30T10:40:40.173Z,99829.94
2019-01-30T10:43:09.594Z,99835.13
2019-01-30T10:45:39.124Z,99835.39
2019-01-30T10:48:08.577Z,99836.63
2019-01-30T10:50:37.957Z,99821.38
2019-01-30T10:53:07.610Z,99824.11
2019-01-30T10:55:37.605Z,99815.12
2019-01-30T10:58:09.557Z,99822.09
2019-01-30T11:00:42.440Z,99814.45
2019-01-30T11:03:11.906Z,99804.59
2019-01-30T11:05:41.304Z,99805.47
2019-01-30T11:08:10.844Z,99805.49
2019-01-30T11:10:40.242Z,99798.02
2019-01-30T11:13:09.670Z,99802.80
2019-01-30T11:15:39.445Z,99785.27
2019-01-30T11:18:12.060Z,99781.80
2019-01-30T11:20:41.457Z,99782.33
2019-01-30T11:23:11.133Z,99770.66
2019-01-30T11:25:42.135Z,99768.05
2019-01-30T11:28:11.703Z,99765.85
2019-01-30T11:30:41.399Z,99771.91
2019-01-30T11:33:10.896Z,99751.56
2019-01-30T11:35:40.416Z,99751.19
2019-01-30T11:38:10.119Z,99743.80
2019-01-30T11:40:39.837Z,99743.80
2019-01-30T11:43:09.684Z,99733.55
2019-01-30T11:45:41.339Z,99733.72
2019-01-30T11:48:11.150Z,99738.20
2019-01-30T11:50:41.940Z,99737.65
2019-01-30T11:53:11.609Z,99727.45
2019-01-30T11:55:41.297Z,99724.42
2019-01-30T11:58:13.305Z,99709.48
2019-01-30T12:01:06.568Z,99712.61
2019-01-30T12:03:35.995Z,99713.64
2019-01-30T12:06:05.637Z,99709.44
2019-01-30T12:08:35.245Z,99703.64
2019-01-30T12:11:04.647Z,99705.08
2019-01-30T12:13:34.051Z,99703.52
2019-01-30T12:16:04.009Z,99701.53
2019-01-30T12:18:33.633Z,99697.67
2019-01-30T12:21:03.200Z,99698.91
2019-01-30T12:23:32.736Z,99695.78
2019-01-30T12:26:02.185Z,99692.94
2019-01-30T12:28:31.642Z,99690.67
2019-01-30T12:31:01.244Z,99669.84
2019-01-30T12:33:30.647Z,99678.91
2019-01-30T12:36:00.329Z,99680.53
2019-01-30T12:38:30.184Z,99675.83
2019-01-30T12:40:59.569Z,99674.52
2019-01-30T12:43:29.281Z,99663.90
2019-01-30T12:45:58.738Z,99665.59
2019-01-30T12:48:28.697Z,99663.34
2019-01-30T12:50:58.465Z,99661.25
2019-01-30T12:53:28.662Z,99654.12
2019-01-30T12:55:58.554Z,99656.05
2019-01-30T12:58:28.435Z,99659.77
2019-01-30T13:00:58.638Z,99652.11
2019-01-30T13:03:28.528Z,99651.32
2019-01-30T13:05:58.461Z,99648.55
2019-01-30T13:08:29.920Z,99642.09
2019-01-30T13:10:59.312Z,99640.98
2019-01-30T13:13:28.950Z,99629.52
2019-01-30T13:16:00.577Z,99617.51
2019-01-30T13:18:30.046Z,99625.16
2019-01-30T13:21:01.290Z,99615.84
2019-01-30T13:23:31.035Z,99620.75
2019-01-30T13:26:00.509Z,99621.29
2019-01-30T13:28:31.072Z,99622.95
2019-01-30T13:31:00.695Z,99635.13
2019-01-30T13:33:30.098Z,99613.34
2019-01-30T13:36:00.984Z,99620.11
2019-01-30T13:38:32.104Z,99613.12
2019-01-30T13:41:01.482Z,99619.02
2019-01-30T13:43:31.998Z,99619.99
2019-01-30T13:46:05.364Z,99622.84
2019-01-30T13:48:33.133Z,99620.60
2019-01-30T13:51:04.092Z,99619.42
2019-01-30T13:53:37.401Z,99606.88
2019-01-30T13:56:07.036Z,99620.45
2019-01-30T13:58:37.834Z,99614.41
2019-01-30T14:01:17.324Z,99611.55
2019-01-30T14:03:42.046Z,99609.36
2019-01-30T14:06:11.499Z,99606.09
2019-01-30T14:08:42.948Z,99606.72
2019-01-30T14:11:12.323Z,99607.51
2019-01-30T14:13:42.966Z,99609.83
2019-01-30T14:16:15.282Z,99614.95
2019-01-30T14:18:44.715Z,99607.81
2019-01-30T14:21:14.270Z,99610.14
2019-01-30T14:23:45.030Z,99611.38
2019-01-30T14:26:15.566Z,99599.28
2019-01-30T14:28:44.955Z,99608.28
2019-01-30T14:31:14.482Z,99609.11
2019-01-30T14:33:44.177Z,99602.94
2019-01-30T14:36:13.817Z,99600.08
2019-01-30T14:38:43.254Z,99606.75
2019-01-30T14:41:14.516Z,99603.69
2019-01-30T14:43:43.910Z,99600.97
2019-01-30T14:46:13.463Z,99597.24
2019-01-30T14:48:44.031Z,99602.34
2019-01-30T14:51:16.791Z,99606.67
2019-01-30T14:53:46.502Z,99593.20
2019-01-30T14:56:18.807Z,99604.52
2019-01-30T14:58:48.274Z,99608.88
2019-01-30T15:01:17.890Z,99594.15
2019-01-30T15:03:47.615Z,99591.83
2019-01-30T15:06:17.051Z,99599.16
2019-01-30T15:08:46.758Z,99604.35
2019-01-30T15:11:16.122Z,99602.56
2019-01-30T15:13:45.540Z,99610.78
2019-01-30T15:16:17.000Z,99604.81
2019-01-30T15:18:46.405Z,99611.64
2019-01-30T15:21:15.861Z,99605.91
2019-01-30T15:23:45.500Z,99597.40
2019-01-30T15:26:16.277Z,99612.37
2019-01-30T15:28:45.728Z,99603.06
2019-01-30T15:31:16.813Z,99605.78
2019-01-30T15:33:46.222Z,99614.52
2019-01-30T15:36:15.633Z,99612.80
2019-01-30T15:38:45.117Z,99609.10
2019-01-30T15:41:14.573Z,99609.88
2019-01-30T15:43:45.460Z,99615.36
2019-01-30T15:46:15.087Z,99616.59
2019-01-30T15:48:44.624Z,99625.13
2019-01-30T15:51:15.206Z,99614.30
2019-01-30T15:53:46.367Z,99625.45
2019-01-30T15:56:15.792Z,99618.06
2019-01-30T15:58:47.003Z,99609.86
2019-01-30T16:01:23.617Z,99617.06
2019-01-30T16:03:53.070Z,99625.58
2019-01-30T16:06:22.998Z,99630.85
2019-01-30T16:08:53.648Z,99628.59
2019-01-30T16:11:24.519Z,99627.81
2019-01-30T16:13:56.380Z,99630.85
2019-01-30T16:16:26.088Z,99634.80
2019-01-30T16:18:56.956Z,99623.03
2019-01-30T16:21:27.434Z,99626.82
2019-01-30T16:23:58.085Z,99624.27
2019-01-30T16:26:27.547Z,99620.40
2019-01-30T16:28:57.043Z,99626.74
2019-01-30T16:31:26.602Z,99618.97
2019-01-30T16:33:56.034Z,99619.83
2019-01-30T16:36:25.471Z,99608.44
2019-01-30T16:38:55.173Z,99607.69
2019-01-30T16:41:24.579Z,99615.02
2019-01-30T16:43:54.227Z,99613.17
2019-01-30T16:46:23.713Z,99618.22
2019-01-30T16:48:56.353Z,99624.64
2019-01-30T16:51:25.755Z,99615.59
2019-01-30T16:53:55.299Z,99623.94
2019-01-30T16:56:25.010Z,99624.80
2019-01-30T16:58:54.428Z,99627.65
2019-01-30T17:01:24.065Z,99630.20
2019-01-30T17:03:53.502Z,99616.42
2019-01-30T17:06:22.980Z,99616.42
2019-01-30T17:08:53.735Z,99626.41
2019-01-30T17:11:24.365Z,99624.85
2019-01-30T17:13:53.772Z,99627.32
2019-01-30T17:16:24.320Z,99630.11
2019-01-30T17:18:55.588Z,99635.45
2019-01-30T17:21:24.972Z,99633.73
2019-01-30T17:23:57.168Z,99631.22
2019-01-30T17:26:25.777Z,99623.41
2019-01-30T17:28:55.225Z,99626.82
2019-01-30T17:31:28.582Z,99627.06
2019-01-30T17:33:57.982Z,99627.81
2019-01-30T17:36:27.445Z,99629.05
2019-01-30T17:38:57.224Z,99633.78
2019-01-30T17:41:26.697Z,99625.02
2019-01-30T17:43:56.122Z,99633.23
2019-01-30T17:46:27.875Z,99633.65
2019-01-30T17:48:57.087Z,99633.65
2019-01-30T17:51:29.683Z,99636.12
2019-01-30T17:54:01.073Z,99634.42
2019-01-30T17:56:30.508Z,99635.83
2019-01-30T17:59:00.462Z,99630.09
2019-01-30T18:01:30.011Z,99638.83
2019-01-30T18:03:59.506Z,99640.63
2019-01-30T18:06:30.787Z,99648.38
2019-01-30T18:09:00.691Z,99654.62
2019-01-30T18:11:31.252Z,99647.59
2019-01-30T18:14:00.799Z,99657.22
2019-01-30T18:16:30.365Z,99646.94
2019-01-30T18:18:59.899Z,99652.70
2019-01-30T18:21:32.079Z,99652.98
2019-01-30T18:24:00.812Z,99650.72
2019-01-30T18:26:30.326Z,99660.01
2019-01-30T18:28:59.745Z,99656.09
2019-01-30T18:31:29.271Z,99654.41
2019-01-30T18:33:59.184Z,99655.84
2019-01-30T18:36:40.338Z,99649.53
2019-01-30T18:39:00.414Z,99650.80
2019-01-30T18:41:29.815Z,99650.05
2019-01-30T18:43:59.289Z,99656.06
2019-01-30T18:46:31.179Z,99657.50
2019-01-30T18:49:00.584Z,99653.71
2019-01-30T18:51:29.996Z,99650.63
2019-01-30T18:54:00.645Z,99663.66
2019-01-30T18:56:30.135Z,99655.39
2019-01-30T18:58:59.608Z,99648.89
2019-01-30T19:01:29.651Z,99652.33
2019-01-30T19:03:59.205Z,99651.37
2019-01-30T19:06:31.940Z,99651.72
2019-01-30T19:09:01.489Z,99637.25
2019-01-30T19:11:30.901Z,99643.30
2019-01-30T19:14:00.325Z,99647.91
2019-01-30T19:16:30.125Z,99643.81
2019-01-30T19:18:59.692Z,99638.84
2019-01-30T19:21:31.064Z,99633.31
2019-01-30T19:24:00.892Z,99643.63
2019-01-30T19:26:30.325Z,99634.80
2019-01-30T19:28:59.809Z,99637.97
2019-01-30T19:31:30.315Z,99628.72
2019-01-30T19:33:59.967Z,99626.72
2019-01-30T19:36:30.529Z,99629.02
2019-01-30T19:39:00.159Z,99625.58
2019-01-30T19:41:29.559Z,99627.78
2019-01-30T19:44:04.092Z,99627.52
2019-01-30T19:46:33.641Z,99630.30
2019-01-30T19:49:03.089Z,99639.95
2019-01-30T19:51:32.573Z,99627.95
2019-01-30T19:54:02.054Z,99620.84
2019-01-30T19:56:31.468Z,99621.27
2019-01-30T19:59:01.281Z,99616.55
2019-01-30T20:01:36.221Z,99611.56
2019-01-30T20:04:02.044Z,99609.52
2019-01-30T20:06:31.830Z,99614.08
2019-01-30T20:09:01.569Z,99628.05
2019-01-30T20:11:32.052Z,99620.39
2019-01-30T20:14:02.442Z,99623.11
2019-01-30T20:16:53.908Z,99620.23
2019-01-30T20:19:23.495Z,99619.86
2019-01-30T20:21:52.955Z,99621.58
2019-01-30T20:24:24.401Z,99619.96
2019-01-30T20:26:53.802Z,99615.13
2019-01-30T20:29:23.219Z,99616.45
2019-01-30T20:31:53.997Z,99622.18
2019-01-30T20:34:24.880Z,99616.09
2019-01-30T20:36:55.442Z,99615.06
2019-01-30T20:39:26.046Z,99613.47
2019-01-30T20:41:56.990Z,99616.35
2019-01-30T20:44:27.585Z,99613.94
2019-01-30T20:47:01.818Z,99615.69
2019-01-30T20:49:31.383Z,99610.84
2019-01-30T20:52:01.894Z,99606.12
2019-01-30T20:54:31.603Z,99601.39
2019-01-30T20:57:01.029Z,99604.25
2019-01-30T20:59:31.917Z,99598.22
2019-01-30T21:02:01.432Z,99590.50
2019-01-30T21:04:30.939Z,99588.69
2019-01-30T21:07:01.468Z,99596.28
2019-01-30T21:09:32.751Z,99581.48
2019-01-30T21:12:02.324Z,99582.19
2019-01-30T21:14:32.990Z,99592.63
2019-01-30T21:17:02.553Z,99594.61
2019-01-30T21:19:32.544Z,99588.84
2019-01-30T21:22:01.939Z,99596.75
2019-01-30T21:24:36.078Z,99586.22
2019-01-30T21:27:09.012Z,99594.45
2019-01-30T21:29:45.458Z,99595.15
2019-01-30T21:32:15.014Z,99606.00
2019-01-30T21:34:46.251Z,99603.38
2019-01-30T21:37:15.663Z,99599.92
2019-01-30T21:39:45.384Z,99609.84
2019-01-30T21:42:14.809Z,99609.22
2019-01-30T21:44:44.355Z,99608.52
2019-01-30T21:47:13.834Z,99603.17
2019-01-30T21:49:44.249Z,99610.83
2019-01-30T21:52:13.726Z,99611.15
2019-01-30T21:54:43.451Z,99610.70
2019-01-30T21:57:14.434Z,99606.59
2019-01-30T21:59:43.898Z,99604.49
2019-01-30T22:02:13.784Z,99599.63
2019-01-30T22:04:43.299Z,99598.23
2019-01-30T22:07:12.746Z,99592.06
2019-01-30T22:09:47.597Z,99584.05
2019-01-30T22:12:17.404Z,99591.66
2019-01-30T22:14:48.630Z,99589.39
2019-01-30T22:17:18.244Z,99594.16
2019-01-30T22:19:47.678Z,99590.81
2019-01-30T22:22:17.097Z,99597.16
2019-01-30T22:24:46.648Z,99590.81
2019-01-30T22:27:16.120Z,99588.94
2019-01-30T22:29:47.338Z,99597.00
2019-01-30T22:32:17.005Z,99586.70
2019-01-30T22:34:52.169Z,99592.22
2019-01-30T22:37:21.293Z,99589.93
2019-01-30T22:39:50.862Z,99588.08
2019-01-30T22:42:20.348Z,99591.78
2019-01-30T22:44:51.277Z,99582.20
2019-01-30T22:47:21.048Z,99584.37
2019-01-30T22:49:51.477Z,99586.92
2019-01-30T22:52:22.132Z,99581.20
2019-01-30T22:54:51.585Z,99587.83
2019-01-30T22:57:22.808Z,99590.50
2019-01-30T22:59:52.235Z,99588.11
2019-01-30T23:02:23.835Z,99586.59
2019-01-30T23:05:28.094Z,99589.93
2019-01-30T23:08:25.981Z,99587.22
2019-01-30T23:11:34.293Z,99589.56
2019-01-30T23:14:28.723Z,99588.61
2019-01-30T23:17:57.318Z,99591.33
2019-01-30T23:20:48.429Z,99593.63
2019-01-30T23:23:54.661Z,99588.16
2019-01-30T23:26:49.242Z,99591.11
2019-01-30T23:30:04.224Z,99583.42
2019-01-30T23:33:23.662Z,99582.98
2019-01-30T23:36:49.108Z,99581.05
2019-01-30T23:39:30.397Z,99577.80
2019-01-30T23:42:31.792Z,99573.44
2019-01-30T23:45:41.559Z,99575.08
2019-01-30T23:48:39.625Z,99574.14
2019-01-30T23:51:53.235Z,99572.25
2019-01-30T23:55:21.714Z,99566.94
2019-01-30T23:58:16.568Z,99567.23
